sensor_id;sensor_type;location;lat;lon;timestamp;temperature;humidity
43987;DHT22;29650;47.378;8.300;2022-12-07T00:00:13;2.90;99.90
43987;DHT22;29650;47.378;8.300;2022-12-07T00:02:40;2.90;99.90
43987;DHT22;29650;47.378;8.300;2022-12-07T00:05:08;2.90;99.90
43987;DHT22;29650;47.378;8.300;2022-12-07T00:07:35;2.90;99.90
43987;DHT22;29650;47.378;8.300;2022-12-07T00:10:02;3.00;99.90
43987;DHT22;29650;47.378;8.300;2022-12-07T00:12:28;3.00;99.90
43987;DHT22;29650;47.378;8.300;2022-12-07T00:14:55;3.00;99.90
43987;DHT22;29650;47.378;8.300;2022-12-07T00:17:22;2.90;99.90
43987;DHT22;29650;47.378;8.300;2022-12-07T00:19:49;2.80;99.90
43987;DHT22;29650;47.378;8.300;2022-12-07T00:22:17;2.80;99.90
43987;DHT22;29650;47.378;8.300;2022-12-07T00:24:43;2.80;99.90
43987;DHT22;29650;47.378;8.300;2022-12-07T00:27:10;2.90;99.90
43987;DHT22;29650;47.378;8.300;2022-12-07T00:29:37;2.90;99.90
43987;DHT22;29650;47.378;8.300;2022-12-07T00:32:04;3.00;99.90
43987;DHT22;29650;47.378;8.300;2022-12-07T00:34:31;3.10;99.90
43987;DHT22;29650;47.378;8.300;2022-12-07T00:36:57;3.10;99.90
43987;DHT22;29650;47.378;8.300;2022-12-07T00:39:25;3.10;99.90
43987;DHT22;29650;47.378;8.300;2022-12-07T00:41:52;3.00;99.90
43987;DHT22;29650;47.378;8.300;2022-12-07T00:44:19;3.10;99.90
43987;DHT22;29650;47.378;8.300;2022-12-07T00:46:46;3.20;99.90
43987;DHT22;29650;47.378;8.300;2022-12-07T00:49:12;3.10;99.90
43987;DHT22;29650;47.378;8.300;2022-12-07T00:51:39;3.00;99.90
43987;DHT22;29650;47.378;8.300;2022-12-07T00:54:06;3.00;99.90
43987;DHT22;29650;47.378;8.300;2022-12-07T00:56:34;3.10;99.90
43987;DHT22;29650;47.378;8.300;2022-12-07T00:59:02;3.20;99.90
43987;DHT22;29650;47.378;8.300;2022-12-07T01:01:30;3.10;99.90
43987;DHT22;29650;47.378;8.300;2022-12-07T01:03:57;3.10;99.90
43987;DHT22;29650;47.378;8.300;2022-12-07T01:06:26;3.10;99.90
43987;DHT22;29650;47.378;8.300;2022-12-07T01:08:53;3.10;99.90
43987;DHT22;29650;47.378;8.300;2022-12-07T01:11:21;3.20;99.90
43987;DHT22;29650;47.378;8.300;2022-12-07T01:13:50;3.20;99.90
43987;DHT22;29650;47.378;8.300;2022-12-07T01:16:17;3.20;99.90
43987;DHT22;29650;47.378;8.300;2022-12-07T01:18:45;3.30;99.90
43987;DHT22;29650;47.378;8.300;2022-12-07T01:21:13;3.20;99.90
43987;DHT22;29650;47.378;8.300;2022-12-07T01:23:41;3.20;99.90
43987;DHT22;29650;47.378;8.300;2022-12-07T01:26:10;3.10;99.90
43987;DHT22;29650;47.378;8.300;2022-12-07T01:28:37;3.00;99.90
43987;DHT22;29650;47.378;8.300;2022-12-07T01:31:06;3.00;99.90
43987;DHT22;29650;47.378;8.300;2022-12-07T01:33:33;3.00;99.90
43987;DHT22;29650;47.378;8.300;2022-12-07T01:36:01;3.10;99.90
43987;DHT22;29650;47.378;8.300;2022-12-07T01:38:28;3.00;99.90
43987;DHT22;29650;47.378;8.300;2022-12-07T01:40:55;3.10;99.90
43987;DHT22;29650;47.378;8.300;2022-12-07T01:43:22;3.10;99.90
43987;DHT22;29650;47.378;8.300;2022-12-07T01:45:50;3.10;99.90
43987;DHT22;29650;47.378;8.300;2022-12-07T01:48:19;3.20;99.90
43987;DHT22;29650;47.378;8.300;2022-12-07T01:50:47;3.20;99.90
43987;DHT22;29650;47.378;8.300;2022-12-07T01:53:15;3.20;99.90
43987;DHT22;29650;47.378;8.300;2022-12-07T01:55:43;3.10;99.90
43987;DHT22;29650;47.378;8.300;2022-12-07T01:58:11;3.20;99.90
43987;DHT22;29650;47.378;8.300;2022-12-07T02:00:39;3.10;99.90
43987;DHT22;29650;47.378;8.300;2022-12-07T02:03:07;3.20;99.90
43987;DHT22;29650;47.378;8.300;2022-12-07T02:05:37;3.20;99.90
43987;DHT22;29650;47.378;8.300;2022-12-07T02:08:04;3.10;99.90
43987;DHT22;29650;47.378;8.300;2022-12-07T02:10:31;3.10;99.90
43987;DHT22;29650;47.378;8.300;2022-12-07T02:12:59;3.20;99.90
43987;DHT22;29650;47.378;8.300;2022-12-07T02:15:28;3.10;99.90
43987;DHT22;29650;47.378;8.300;2022-12-07T02:18:00;3.10;99.90
43987;DHT22;29650;47.378;8.300;2022-12-07T02:20:29;3.10;99.90
43987;DHT22;29650;47.378;8.300;2022-12-07T02:28:46;3.10;99.90
43987;DHT22;29650;47.378;8.300;2022-12-07T02:31:14;3.00;99.90
43987;DHT22;29650;47.378;8.300;2022-12-07T02:33:44;3.10;99.90
43987;DHT22;29650;47.378;8.300;2022-12-07T02:36:13;3.10;99.90
43987;DHT22;29650;47.378;8.300;2022-12-07T02:38:43;3.10;99.90
43987;DHT22;29650;47.378;8.300;2022-12-07T02:41:12;3.20;99.90
43987;DHT22;29650;47.378;8.300;2022-12-07T02:43:41;3.10;99.90
43987;DHT22;29650;47.378;8.300;2022-12-07T02:46:10;3.10;99.90
43987;DHT22;29650;47.378;8.300;2022-12-07T02:48:38;3.10;99.90
43987;DHT22;29650;47.378;8.300;2022-12-07T02:51:05;3.20;99.90
43987;DHT22;29650;47.378;8.300;2022-12-07T02:53:33;3.20;99.90
43987;DHT22;29650;47.378;8.300;2022-12-07T02:56:01;3.10;99.90
43987;DHT22;29650;47.378;8.300;2022-12-07T02:58:32;3.20;99.90
43987;DHT22;29650;47.378;8.300;2022-12-07T03:01:04;3.20;99.90
43987;DHT22;29650;47.378;8.300;2022-12-07T03:03:36;3.30;99.90
43987;DHT22;29650;47.378;8.300;2022-12-07T03:06:06;3.20;99.90
43987;DHT22;29650;47.378;8.300;2022-12-07T03:08:38;3.10;99.90
43987;DHT22;29650;47.378;8.300;2022-12-07T03:11:09;3.00;99.90
43987;DHT22;29650;47.378;8.300;2022-12-07T03:13:39;3.10;99.90
43987;DHT22;29650;47.378;8.300;2022-12-07T03:16:08;3.10;99.90
43987;DHT22;29650;47.378;8.300;2022-12-07T03:18:38;3.20;99.90
43987;DHT22;29650;47.378;8.300;2022-12-07T03:21:08;3.20;99.90
43987;DHT22;29650;47.378;8.300;2022-12-07T03:23:36;3.30;99.90
43987;DHT22;29650;47.378;8.300;2022-12-07T03:26:04;3.30;99.90
43987;DHT22;29650;47.378;8.300;2022-12-07T03:28:33;3.30;99.90
43987;DHT22;29650;47.378;8.300;2022-12-07T03:31:02;3.40;99.90
43987;DHT22;29650;47.378;8.300;2022-12-07T03:33:31;3.30;99.90
43987;DHT22;29650;47.378;8.300;2022-12-07T03:36:01;3.30;99.90
43987;DHT22;29650;47.378;8.300;2022-12-07T03:38:31;3.30;99.90
43987;DHT22;29650;47.378;8.300;2022-12-07T03:41:00;3.20;99.90
43987;DHT22;29650;47.378;8.300;2022-12-07T03:43:28;3.20;99.90
43987;DHT22;29650;47.378;8.300;2022-12-07T03:45:57;3.30;99.90
43987;DHT22;29650;47.378;8.300;2022-12-07T03:48:30;3.20;99.90
43987;DHT22;29650;47.378;8.300;2022-12-07T03:51:01;3.10;99.90
43987;DHT22;29650;47.378;8.300;2022-12-07T03:53:34;3.20;99.90
43987;DHT22;29650;47.378;8.300;2022-12-07T03:56:02;3.20;99.90
43987;DHT22;29650;47.378;8.300;2022-12-07T03:58:30;3.30;99.90
43987;DHT22;29650;47.378;8.300;2022-12-07T04:00:56;3.40;99.90
43987;DHT22;29650;47.378;8.300;2022-12-07T04:03:23;3.20;99.90
43987;DHT22;29650;47.378;8.300;2022-12-07T04:05:50;3.20;99.90
43987;DHT22;29650;47.378;8.300;2022-12-07T04:08:18;3.40;99.90
43987;DHT22;29650;47.378;8.300;2022-12-07T04:10:45;3.40;99.90
43987;DHT22;29650;47.378;8.300;2022-12-07T04:13:12;3.50;99.90
43987;DHT22;29650;47.378;8.300;2022-12-07T04:15:39;3.40;99.90
43987;DHT22;29650;47.378;8.300;2022-12-07T04:18:05;3.40;99.90
43987;DHT22;29650;47.378;8.300;2022-12-07T04:20:32;3.50;99.90
43987;DHT22;29650;47.378;8.300;2022-12-07T04:22:59;3.50;99.90
43987;DHT22;29650;47.378;8.300;2022-12-07T04:25:27;3.50;99.90
43987;DHT22;29650;47.378;8.300;2022-12-07T04:27:54;3.40;99.90
43987;DHT22;29650;47.378;8.300;2022-12-07T04:30:21;3.30;99.90
43987;DHT22;29650;47.378;8.300;2022-12-07T04:32:48;3.30;99.90
43987;DHT22;29650;47.378;8.300;2022-12-07T04:35:15;3.40;99.90
43987;DHT22;29650;47.378;8.300;2022-12-07T04:37:41;3.30;99.90
43987;DHT22;29650;47.378;8.300;2022-12-07T04:40:08;3.50;99.90
43987;DHT22;29650;47.378;8.300;2022-12-07T04:42:37;3.50;99.90
43987;DHT22;29650;47.378;8.300;2022-12-07T04:45:05;3.50;99.90
43987;DHT22;29650;47.378;8.300;2022-12-07T04:47:32;3.40;99.90
43987;DHT22;29650;47.378;8.300;2022-12-07T04:49:59;3.40;99.90
43987;DHT22;29650;47.378;8.300;2022-12-07T04:52:25;3.50;99.90
43987;DHT22;29650;47.378;8.300;2022-12-07T04:54:52;3.50;99.90
43987;DHT22;29650;47.378;8.300;2022-12-07T04:57:19;3.40;99.90
43987;DHT22;29650;47.378;8.300;2022-12-07T04:59:47;3.40;99.90
43987;DHT22;29650;47.378;8.300;2022-12-07T05:02:14;3.50;99.90
43987;DHT22;29650;47.378;8.300;2022-12-07T05:04:40;3.50;99.90
43987;DHT22;29650;47.378;8.300;2022-12-07T05:07:07;3.40;99.90
43987;DHT22;29650;47.378;8.300;2022-12-07T05:09:34;3.40;99.90
43987;DHT22;29650;47.378;8.300;2022-12-07T05:12:01;3.40;99.90
43987;DHT22;29650;47.378;8.300;2022-12-07T05:14:27;3.40;99.90
43987;DHT22;29650;47.378;8.300;2022-12-07T05:16:55;3.40;99.90
43987;DHT22;29650;47.378;8.300;2022-12-07T05:19:22;3.50;99.90
43987;DHT22;29650;47.378;8.300;2022-12-07T05:21:49;3.60;99.90
43987;DHT22;29650;47.378;8.300;2022-12-07T05:24:16;3.40;99.90
43987;DHT22;29650;47.378;8.300;2022-12-07T05:26:43;3.40;99.90
43987;DHT22;29650;47.378;8.300;2022-12-07T05:29:10;3.50;99.90
43987;DHT22;29650;47.378;8.300;2022-12-07T05:31:37;3.50;99.90
43987;DHT22;29650;47.378;8.300;2022-12-07T05:34:05;3.40;99.90
43987;DHT22;29650;47.378;8.300;2022-12-07T05:36:32;3.40;99.90
43987;DHT22;29650;47.378;8.300;2022-12-07T05:38:59;3.50;99.90
43987;DHT22;29650;47.378;8.300;2022-12-07T05:41:26;3.40;99.90
43987;DHT22;29650;47.378;8.300;2022-12-07T05:44:10;3.50;99.90
43987;DHT22;29650;47.378;8.300;2022-12-07T05:46:37;3.50;99.90
43987;DHT22;29650;47.378;8.300;2022-12-07T05:49:05;3.50;99.90
43987;DHT22;29650;47.378;8.300;2022-12-07T05:51:32;3.50;99.90
43987;DHT22;29650;47.378;8.300;2022-12-07T05:53:59;3.60;99.90
43987;DHT22;29650;47.378;8.300;2022-12-07T05:56:25;3.60;99.90
43987;DHT22;29650;47.378;8.300;2022-12-07T05:58:53;3.60;99.90
43987;DHT22;29650;47.378;8.300;2022-12-07T06:01:37;3.60;99.90
43987;DHT22;29650;47.378;8.300;2022-12-07T06:04:03;3.60;99.90
43987;DHT22;29650;47.378;8.300;2022-12-07T06:06:32;3.70;99.90
43987;DHT22;29650;47.378;8.300;2022-12-07T06:08:58;3.60;99.90
43987;DHT22;29650;47.378;8.300;2022-12-07T06:11:25;3.60;99.90
43987;DHT22;29650;47.378;8.300;2022-12-07T06:14:09;3.50;99.90
43987;DHT22;29650;47.378;8.300;2022-12-07T06:16:36;3.50;99.90
43987;DHT22;29650;47.378;8.300;2022-12-07T06:19:03;3.40;99.90
43987;DHT22;29650;47.378;8.300;2022-12-07T06:21:31;3.40;99.90
43987;DHT22;29650;47.378;8.300;2022-12-07T06:23:58;3.40;99.90
43987;DHT22;29650;47.378;8.300;2022-12-07T06:26:25;3.40;99.90
43987;DHT22;29650;47.378;8.300;2022-12-07T06:28:52;3.40;99.90
43987;DHT22;29650;47.378;8.300;2022-12-07T06:31:18;3.40;99.90
43987;DHT22;29650;47.378;8.300;2022-12-07T06:33:45;3.40;99.90
43987;DHT22;29650;47.378;8.300;2022-12-07T06:36:12;3.40;99.90
43987;DHT22;29650;47.378;8.300;2022-12-07T06:38:40;3.40;99.90
43987;DHT22;29650;47.378;8.300;2022-12-07T06:41:06;3.30;99.90
43987;DHT22;29650;47.378;8.300;2022-12-07T06:43:33;3.20;99.90
43987;DHT22;29650;47.378;8.300;2022-12-07T06:46:00;3.20;99.90
43987;DHT22;29650;47.378;8.300;2022-12-07T06:48:27;3.30;99.90
43987;DHT22;29650;47.378;8.300;2022-12-07T06:50:54;3.50;99.90
43987;DHT22;29650;47.378;8.300;2022-12-07T06:53:21;3.40;99.90
43987;DHT22;29650;47.378;8.300;2022-12-07T06:55:49;3.50;99.90
43987;DHT22;29650;47.378;8.300;2022-12-07T06:58:16;3.40;99.90
43987;DHT22;29650;47.378;8.300;2022-12-07T07:00:43;3.30;99.90
43987;DHT22;29650;47.378;8.300;2022-12-07T07:03:09;3.30;99.90
43987;DHT22;29650;47.378;8.300;2022-12-07T07:05:36;3.40;99.90
43987;DHT22;29650;47.378;8.300;2022-12-07T07:08:03;3.30;99.90
43987;DHT22;29650;47.378;8.300;2022-12-07T07:10:30;3.30;99.90
43987;DHT22;29650;47.378;8.300;2022-12-07T07:12:58;3.40;99.90
43987;DHT22;29650;47.378;8.300;2022-12-07T07:15:25;3.40;99.90
43987;DHT22;29650;47.378;8.300;2022-12-07T07:17:52;3.40;99.90
43987;DHT22;29650;47.378;8.300;2022-12-07T07:20:19;3.60;99.90
43987;DHT22;29650;47.378;8.300;2022-12-07T07:22:45;3.50;99.90
43987;DHT22;29650;47.378;8.300;2022-12-07T07:25:12;3.50;99.90
43987;DHT22;29650;47.378;8.300;2022-12-07T07:27:39;3.60;99.90
43987;DHT22;29650;47.378;8.300;2022-12-07T07:30:08;3.50;99.90
43987;DHT22;29650;47.378;8.300;2022-12-07T07:32:35;3.30;99.90
43987;DHT22;29650;47.378;8.300;2022-12-07T07:35:02;3.50;99.90
43987;DHT22;29650;47.378;8.300;2022-12-07T07:37:28;3.50;99.90
43987;DHT22;29650;47.378;8.300;2022-12-07T07:39:55;3.50;99.90
43987;DHT22;29650;47.378;8.300;2022-12-07T07:42:22;3.40;99.90
43987;DHT22;29650;47.378;8.300;2022-12-07T07:44:49;3.40;99.90
43987;DHT22;29650;47.378;8.300;2022-12-07T07:47:17;3.40;99.90
43987;DHT22;29650;47.378;8.300;2022-12-07T07:49:44;3.40;99.90
43987;DHT22;29650;47.378;8.300;2022-12-07T07:52:10;3.40;99.90
43987;DHT22;29650;47.378;8.300;2022-12-07T07:54:38;3.50;99.90
43987;DHT22;29650;47.378;8.300;2022-12-07T07:57:04;3.40;99.90
43987;DHT22;29650;47.378;8.300;2022-12-07T07:59:31;3.30;99.90
43987;DHT22;29650;47.378;8.300;2022-12-07T08:01:58;3.30;99.90
43987;DHT22;29650;47.378;8.300;2022-12-07T08:04:26;3.30;99.90
43987;DHT22;29650;47.378;8.300;2022-12-07T08:06:53;3.40;99.90
43987;DHT22;29650;47.378;8.300;2022-12-07T08:09:20;3.50;99.90
43987;DHT22;29650;47.378;8.300;2022-12-07T08:11:46;3.40;99.90
43987;DHT22;29650;47.378;8.300;2022-12-07T08:14:13;2.70;99.90
43987;DHT22;29650;47.378;8.300;2022-12-07T08:16:40;3.30;99.90
43987;DHT22;29650;47.378;8.300;2022-12-07T08:19:07;3.30;99.90
43987;DHT22;29650;47.378;8.300;2022-12-07T08:21:35;3.40;99.90
43987;DHT22;29650;47.378;8.300;2022-12-07T08:24:01;3.40;99.90
43987;DHT22;29650;47.378;8.300;2022-12-07T08:26:28;3.50;99.90
43987;DHT22;29650;47.378;8.300;2022-12-07T08:28:55;3.40;99.90
43987;DHT22;29650;47.378;8.300;2022-12-07T08:31:22;3.40;99.90
43987;DHT22;29650;47.378;8.300;2022-12-07T08:33:49;3.40;99.90
43987;DHT22;29650;47.378;8.300;2022-12-07T08:36:16;3.50;99.90
43987;DHT22;29650;47.378;8.300;2022-12-07T08:38:44;3.50;99.90
43987;DHT22;29650;47.378;8.300;2022-12-07T08:41:11;3.50;99.90
43987;DHT22;29650;47.378;8.300;2022-12-07T08:43:37;3.40;99.90
43987;DHT22;29650;47.378;8.300;2022-12-07T08:46:07;3.50;99.90
43987;DHT22;29650;47.378;8.300;2022-12-07T08:48:36;3.60;99.90
43987;DHT22;29650;47.378;8.300;2022-12-07T08:51:03;3.50;99.90
43987;DHT22;29650;47.378;8.300;2022-12-07T08:53:29;3.50;99.90
43987;DHT22;29650;47.378;8.300;2022-12-07T08:55:57;3.40;99.90
43987;DHT22;29650;47.378;8.300;2022-12-07T08:58:24;3.30;99.90
43987;DHT22;29650;47.378;8.300;2022-12-07T09:00:51;3.30;99.90
43987;DHT22;29650;47.378;8.300;2022-12-07T09:03:18;3.50;99.90
43987;DHT22;29650;47.378;8.300;2022-12-07T09:05:45;3.40;99.90
43987;DHT22;29650;47.378;8.300;2022-12-07T09:08:11;3.40;99.90
43987;DHT22;29650;47.378;8.300;2022-12-07T09:10:38;3.50;99.90
43987;DHT22;29650;47.378;8.300;2022-12-07T09:13:06;3.50;99.90
43987;DHT22;29650;47.378;8.300;2022-12-07T09:15:33;3.50;99.90
43987;DHT22;29650;47.378;8.300;2022-12-07T09:18:00;3.50;99.90
43987;DHT22;29650;47.378;8.300;2022-12-07T09:20:27;3.40;99.90
43987;DHT22;29650;47.378;8.300;2022-12-07T09:22:53;3.40;99.90
43987;DHT22;29650;47.378;8.300;2022-12-07T09:25:20;3.40;99.90
43987;DHT22;29650;47.378;8.300;2022-12-07T09:27:47;3.50;99.90
43987;DHT22;29650;47.378;8.300;2022-12-07T09:30:15;3.60;99.90
43987;DHT22;29650;47.378;8.300;2022-12-07T09:32:42;3.60;99.90
43987;DHT22;29650;47.378;8.300;2022-12-07T09:35:09;3.60;99.90
43987;DHT22;29650;47.378;8.300;2022-12-07T09:37:36;3.60;99.90
43987;DHT22;29650;47.378;8.300;2022-12-07T09:40:04;3.70;99.90
43987;DHT22;29650;47.378;8.300;2022-12-07T09:42:32;3.50;99.90
43987;DHT22;29650;47.378;8.300;2022-12-07T09:45:00;3.60;99.90
43987;DHT22;29650;47.378;8.300;2022-12-07T09:47:29;3.60;99.90
43987;DHT22;29650;47.378;8.300;2022-12-07T09:49:58;3.70;99.90
43987;DHT22;29650;47.378;8.300;2022-12-07T09:52:27;3.60;99.90
43987;DHT22;29650;47.378;8.300;2022-12-07T09:54:54;3.60;99.90
43987;DHT22;29650;47.378;8.300;2022-12-07T09:57:25;3.70;99.90
43987;DHT22;29650;47.378;8.300;2022-12-07T09:59:53;3.70;99.90
43987;DHT22;29650;47.378;8.300;2022-12-07T10:02:23;3.70;99.90
43987;DHT22;29650;47.378;8.300;2022-12-07T10:04:52;3.60;99.90
43987;DHT22;29650;47.378;8.300;2022-12-07T10:07:19;3.80;99.90
43987;DHT22;29650;47.378;8.300;2022-12-07T10:09:45;3.80;99.90
43987;DHT22;29650;47.378;8.300;2022-12-07T10:12:14;3.80;99.90
43987;DHT22;29650;47.378;8.300;2022-12-07T10:14:54;3.70;99.90
43987;DHT22;29650;47.378;8.300;2022-12-07T10:17:29;3.80;99.90
43987;DHT22;29650;47.378;8.300;2022-12-07T10:20:11;3.80;99.90
43987;DHT22;29650;47.378;8.300;2022-12-07T10:22:41;3.80;99.90
43987;DHT22;29650;47.378;8.300;2022-12-07T10:25:20;4.00;99.90
43987;DHT22;29650;47.378;8.300;2022-12-07T10:27:56;3.90;99.90
43987;DHT22;29650;47.378;8.300;2022-12-07T10:30:23;3.90;99.90
43987;DHT22;29650;47.378;8.300;2022-12-07T10:32:50;3.90;99.90
43987;DHT22;29650;47.378;8.300;2022-12-07T10:35:22;4.00;99.90
43987;DHT22;29650;47.378;8.300;2022-12-07T10:37:50;4.20;99.90
43987;DHT22;29650;47.378;8.300;2022-12-07T10:40:28;4.00;99.90
43987;DHT22;29650;47.378;8.300;2022-12-07T10:43:15;4.10;99.90
43987;DHT22;29650;47.378;8.300;2022-12-07T10:45:53;4.10;99.90
43987;DHT22;29650;47.378;8.300;2022-12-07T10:48:26;4.10;99.90
43987;DHT22;29650;47.378;8.300;2022-12-07T10:51:00;4.00;99.90
43987;DHT22;29650;47.378;8.300;2022-12-07T10:53:34;4.10;99.90
43987;DHT22;29650;47.378;8.300;2022-12-07T10:56:10;4.00;99.90
43987;DHT22;29650;47.378;8.300;2022-12-07T10:58:44;4.10;99.90
43987;DHT22;29650;47.378;8.300;2022-12-07T11:01:17;4.40;99.90
43987;DHT22;29650;47.378;8.300;2022-12-07T11:04:03;4.40;99.90
43987;DHT22;29650;47.378;8.300;2022-12-07T11:06:34;4.40;99.90
43987;DHT22;29650;47.378;8.300;2022-12-07T11:09:04;4.40;99.90
43987;DHT22;29650;47.378;8.300;2022-12-07T11:11:35;4.40;99.90
43987;DHT22;29650;47.378;8.300;2022-12-07T11:14:05;4.40;99.90
43987;DHT22;29650;47.378;8.300;2022-12-07T11:16:39;4.40;99.90
43987;DHT22;29650;47.378;8.300;2022-12-07T11:19:14;4.40;99.90
43987;DHT22;29650;47.378;8.300;2022-12-07T11:21:45;4.40;99.90
43987;DHT22;29650;47.378;8.300;2022-12-07T11:24:15;4.30;99.90
43987;DHT22;29650;47.378;8.300;2022-12-07T11:26:48;4.40;99.90
43987;DHT22;29650;47.378;8.300;2022-12-07T11:29:30;4.40;99.90
43987;DHT22;29650;47.378;8.300;2022-12-07T11:32:01;4.40;99.90
43987;DHT22;29650;47.378;8.300;2022-12-07T11:34:35;4.40;99.90
43987;DHT22;29650;47.378;8.300;2022-12-07T11:37:05;4.30;99.90
43987;DHT22;29650;47.378;8.300;2022-12-07T11:39:39;4.30;99.90
43987;DHT22;29650;47.378;8.300;2022-12-07T11:42:09;4.40;99.90
43987;DHT22;29650;47.378;8.300;2022-12-07T11:44:40;4.50;99.90
43987;DHT22;29650;47.378;8.300;2022-12-07T11:47:12;4.50;99.90
43987;DHT22;29650;47.378;8.300;2022-12-07T11:49:42;4.60;99.90
43987;DHT22;29650;47.378;8.300;2022-12-07T11:52:13;4.60;99.90
43987;DHT22;29650;47.378;8.300;2022-12-07T11:54:42;4.60;99.90
43987;DHT22;29650;47.378;8.300;2022-12-07T11:57:12;4.60;99.90
43987;DHT22;29650;47.378;8.300;2022-12-07T11:59:42;4.70;99.90
43987;DHT22;29650;47.378;8.300;2022-12-07T12:02:12;4.60;99.90
43987;DHT22;29650;47.378;8.300;2022-12-07T12:04:47;4.80;99.90
43987;DHT22;29650;47.378;8.300;2022-12-07T12:07:19;4.80;99.90
43987;DHT22;29650;47.378;8.300;2022-12-07T12:09:48;4.80;99.90
43987;DHT22;29650;47.378;8.300;2022-12-07T12:12:22;4.90;99.90
43987;DHT22;29650;47.378;8.300;2022-12-07T12:14:55;4.90;99.90
43987;DHT22;29650;47.378;8.300;2022-12-07T12:17:30;4.90;99.90
43987;DHT22;29650;47.378;8.300;2022-12-07T12:20:00;4.90;99.90
43987;DHT22;29650;47.378;8.300;2022-12-07T12:22:32;4.90;99.90
43987;DHT22;29650;47.378;8.300;2022-12-07T12:25:00;4.90;99.90
43987;DHT22;29650;47.378;8.300;2022-12-07T12:27:31;4.90;99.90
43987;DHT22;29650;47.378;8.300;2022-12-07T12:29:59;5.00;99.90
43987;DHT22;29650;47.378;8.300;2022-12-07T12:32:30;5.00;99.90
43987;DHT22;29650;47.378;8.300;2022-12-07T12:34:59;5.10;99.90
43987;DHT22;29650;47.378;8.300;2022-12-07T12:37:41;5.10;99.90
43987;DHT22;29650;47.378;8.300;2022-12-07T12:40:23;5.10;99.90
43987;DHT22;29650;47.378;8.300;2022-12-07T12:43:27;5.10;99.90
43987;DHT22;29650;47.378;8.300;2022-12-07T12:45:49;5.00;99.90
43987;DHT22;29650;47.378;8.300;2022-12-07T12:48:36;5.10;99.90
43987;DHT22;29650;47.378;8.300;2022-12-07T12:53:52;5.10;99.90
43987;DHT22;29650;47.378;8.300;2022-12-07T12:56:33;5.00;99.90
43987;DHT22;29650;47.378;8.300;2022-12-07T12:59:21;5.20;99.90
43987;DHT22;29650;47.378;8.300;2022-12-07T13:01:48;5.20;99.90
43987;DHT22;29650;47.378;8.300;2022-12-07T13:07:00;5.20;99.90
43987;DHT22;29650;47.378;8.300;2022-12-07T13:09:29;5.30;99.90
43987;DHT22;29650;47.378;8.300;2022-12-07T13:11:58;5.30;99.90
43987;DHT22;29650;47.378;8.300;2022-12-07T13:14:39;5.30;99.90
43987;DHT22;29650;47.378;8.300;2022-12-07T13:17:08;5.30;99.90
43987;DHT22;29650;47.378;8.300;2022-12-07T13:25:21;5.20;99.90
43987;DHT22;29650;47.378;8.300;2022-12-07T13:27:50;5.20;99.90
43987;DHT22;29650;47.378;8.300;2022-12-07T13:30:19;5.30;99.90
43987;DHT22;29650;47.378;8.300;2022-12-07T13:32:51;5.20;99.90
43987;DHT22;29650;47.378;8.300;2022-12-07T13:35:27;5.20;99.90
43987;DHT22;29650;47.378;8.300;2022-12-07T13:37:54;5.20;99.90
43987;DHT22;29650;47.378;8.300;2022-12-07T13:40:23;5.10;99.90
43987;DHT22;29650;47.378;8.300;2022-12-07T13:42:56;5.00;99.90
43987;DHT22;29650;47.378;8.300;2022-12-07T13:45:24;5.10;99.90
43987;DHT22;29650;47.378;8.300;2022-12-07T13:48:14;5.50;99.90
43987;DHT22;29650;47.378;8.300;2022-12-07T13:50:42;5.20;99.90
43987;DHT22;29650;47.378;8.300;2022-12-07T13:53:11;5.10;99.90
43987;DHT22;29650;47.378;8.300;2022-12-07T13:55:45;5.10;99.90
43987;DHT22;29650;47.378;8.300;2022-12-07T13:58:12;5.00;99.90
43987;DHT22;29650;47.378;8.300;2022-12-07T14:00:39;5.10;99.90
43987;DHT22;29650;47.378;8.300;2022-12-07T14:03:22;5.20;99.90
43987;DHT22;29650;47.378;8.300;2022-12-07T14:06:02;5.10;99.90
43987;DHT22;29650;47.378;8.300;2022-12-07T14:08:30;5.00;99.90
43987;DHT22;29650;47.378;8.300;2022-12-07T14:10:58;5.10;99.90
43987;DHT22;29650;47.378;8.300;2022-12-07T14:13:27;5.10;99.90
43987;DHT22;29650;47.378;8.300;2022-12-07T14:15:55;5.00;99.90
43987;DHT22;29650;47.378;8.300;2022-12-07T14:18:25;4.80;99.90
43987;DHT22;29650;47.378;8.300;2022-12-07T14:21:02;4.70;99.90
43987;DHT22;29650;47.378;8.300;2022-12-07T14:23:29;4.90;99.90
43987;DHT22;29650;47.378;8.300;2022-12-07T14:26:04;4.80;99.90
43987;DHT22;29650;47.378;8.300;2022-12-07T14:28:32;4.80;99.90
43987;DHT22;29650;47.378;8.300;2022-12-07T14:30:59;4.90;99.90
43987;DHT22;29650;47.378;8.300;2022-12-07T14:33:26;4.90;99.90
43987;DHT22;29650;47.378;8.300;2022-12-07T14:35:54;4.90;99.90
43987;DHT22;29650;47.378;8.300;2022-12-07T14:38:23;5.00;99.90
43987;DHT22;29650;47.378;8.300;2022-12-07T14:40:51;5.00;99.90
43987;DHT22;29650;47.378;8.300;2022-12-07T14:43:19;4.90;99.90
43987;DHT22;29650;47.378;8.300;2022-12-07T14:45:46;5.00;99.90
43987;DHT22;29650;47.378;8.300;2022-12-07T14:48:13;5.00;99.90
43987;DHT22;29650;47.378;8.300;2022-12-07T14:50:41;5.10;99.90
43987;DHT22;29650;47.378;8.300;2022-12-07T14:53:10;5.00;99.90
43987;DHT22;29650;47.378;8.300;2022-12-07T14:55:39;5.10;99.90
43987;DHT22;29650;47.378;8.300;2022-12-07T14:58:06;5.00;99.90
43987;DHT22;29650;47.378;8.300;2022-12-07T15:00:34;5.10;99.90
43987;DHT22;29650;47.378;8.300;2022-12-07T15:03:01;5.00;99.90
43987;DHT22;29650;47.378;8.300;2022-12-07T15:05:27;5.00;99.90
43987;DHT22;29650;47.378;8.300;2022-12-07T15:07:54;4.90;99.90
43987;DHT22;29650;47.378;8.300;2022-12-07T15:10:22;4.90;99.90
43987;DHT22;29650;47.378;8.300;2022-12-07T15:12:49;4.90;99.90
43987;DHT22;29650;47.378;8.300;2022-12-07T15:15:16;4.80;99.90
43987;DHT22;29650;47.378;8.300;2022-12-07T15:17:44;4.90;99.90
43987;DHT22;29650;47.378;8.300;2022-12-07T15:20:11;4.70;99.90
43987;DHT22;29650;47.378;8.300;2022-12-07T15:22:38;4.80;99.90
43987;DHT22;29650;47.378;8.300;2022-12-07T15:25:05;4.90;99.90
43987;DHT22;29650;47.378;8.300;2022-12-07T15:27:33;4.90;99.90
43987;DHT22;29650;47.378;8.300;2022-12-07T15:29:59;4.90;99.90
43987;DHT22;29650;47.378;8.300;2022-12-07T15:32:26;4.80;99.90
43987;DHT22;29650;47.378;8.300;2022-12-07T15:34:54;4.80;99.90
43987;DHT22;29650;47.378;8.300;2022-12-07T15:37:21;4.90;99.90
43987;DHT22;29650;47.378;8.300;2022-12-07T15:39:48;4.70;99.90
43987;DHT22;29650;47.378;8.300;2022-12-07T15:42:15;4.90;99.90
43987;DHT22;29650;47.378;8.300;2022-12-07T15:44:41;4.60;99.90
43987;DHT22;29650;47.378;8.300;2022-12-07T15:47:25;4.50;99.90
43987;DHT22;29650;47.378;8.300;2022-12-07T15:49:52;4.50;99.90
43987;DHT22;29650;47.378;8.300;2022-12-07T15:52:20;4.50;99.90
43987;DHT22;29650;47.378;8.300;2022-12-07T15:54:47;4.50;99.90
43987;DHT22;29650;47.378;8.300;2022-12-07T15:57:14;4.40;99.90
43987;DHT22;29650;47.378;8.300;2022-12-07T15:59:41;4.50;99.90
43987;DHT22;29650;47.378;8.300;2022-12-07T16:02:08;4.70;99.90
43987;DHT22;29650;47.378;8.300;2022-12-07T16:04:35;4.40;99.90
43987;DHT22;29650;47.378;8.300;2022-12-07T16:07:02;4.30;99.90
43987;DHT22;29650;47.378;8.300;2022-12-07T16:09:30;4.20;99.90
43987;DHT22;29650;47.378;8.300;2022-12-07T16:11:57;4.10;99.90